This is the latest recevied weather packets stored in our database for station/object WA4IKQ. If no packets are shown the sender has not sent any weather packets the latest 10 day(s).
| Time | Temp. | Humidity | Pressure | Rain* | Wind** | Luminosity | Snow |
|---|---|---|---|---|---|---|---|
| 1787440640 | 28.89° C | 70% | 1015.2 hPa | 0 mm | 1.34 m/s, 149° | - | - |
| 1787440561 | 28.89° C | 70% | 1015.2 hPa | 0 mm | 1.34 m/s, 149° | - | - |
| 1787440330 | 29.44° C | 68% | 1015.2 hPa | 0 mm | 0.45 m/s, 107° | - | - |
| 1787440272 | 29.44° C | 68% | 1015.2 hPa | 0 mm | 0.45 m/s, 107° | - | - |
| 1787440051 | 30.56° C | 67% | 1015.4 hPa | 0 mm | 2.24 m/s, 98° | - | - |
| 1787439969 | 30.56° C | 67% | 1015.4 hPa | 0 mm | 2.24 m/s, 98° | - | - |
| 1787439736 | 31.11° C | 65% | 1015.5 hPa | 0 mm | 0.89 m/s, 186° | - | - |
| 1787439669 | 31.11° C | 65% | 1015.5 hPa | 0 mm | 0.89 m/s, 186° | - | - |
| 1787439421 | 31.67° C | 60% | 1015.4 hPa | 0 mm | 2.24 m/s, 233° | - | - |
| 1787439360 | 31.67° C | 60% | 1015.4 hPa | 0 mm | 2.24 m/s, 233° | - | - |
| 1787439096 | 31.67° C | 59% | 1015.3 hPa | 0 mm | 2.68 m/s, 131° | - | - |
| 1787439060 | 31.67° C | 59% | 1015.3 hPa | 0 mm | 2.68 m/s, 131° | - | - |
| 1787437380 | 31.67° C | 58% | 1015 hPa | 0 mm | 1.79 m/s, 197° | - | - |
| 1787437261 | 31.67° C | 58% | 1015 hPa | 0 mm | 1.79 m/s, 197° | - | - |
| 1787437049 | 31.67° C | 60% | 1014.8 hPa | 0 mm | 2.24 m/s, 165° | - | - |
| 1787436962 | 31.67° C | 60% | 1014.8 hPa | 0 mm | 2.24 m/s, 165° | - | - |
| 1787436790 | 31.67° C | 60% | 1014.6 hPa | 0 mm | 0.45 m/s, 197° | - | - |
| 1787436661 | 31.67° C | 60% | 1014.6 hPa | 0 mm | 0.45 m/s, 197° | - | - |
| 1787436449 | 31.11° C | 61% | 1014.4 hPa | 0 mm | 1.34 m/s, 203° | - | - |
| 1787436361 | 31.11° C | 61% | 1014.4 hPa | 0 mm | 1.34 m/s, 203° | - | - |
| 1787436158 | 30.56° C | 62% | 1014.3 hPa | 0 mm | 3.13 m/s, 183° | - | - |
| 1787436062 | 30.56° C | 62% | 1014.3 hPa | 0 mm | 3.13 m/s, 183° | - | - |
| 1787435855 | 30.56° C | 63% | 1014.4 hPa | 0 mm | 3.13 m/s, 197° | - | - |
| 1787435762 | 30.56° C | 63% | 1014.4 hPa | 0 mm | 3.13 m/s, 197° | - | - |
| 1787435546 | 30.56° C | 62% | 1014.4 hPa | 0 mm | 1.34 m/s, 177° | - | - |
* Rain latest hour (hover to see other rain measurements)
** Current wind speed in m/s (hover to see current wind gust speed)